sensor_id;sensor_type;location;lat;lon;timestamp;P1;durP1;ratioP1;P2;durP2;ratioP2
82640;SDS011;72322;41.918;22.414;2023-12-20T00:01:11;45.25;;;28.13;;
82640;SDS011;72322;41.918;22.414;2023-12-20T00:03:37;62.50;;;34.95;;
82640;SDS011;72322;41.918;22.414;2023-12-20T00:06:03;65.75;;;37.75;;
82640;SDS011;72322;41.918;22.414;2023-12-20T00:08:29;65.03;;;35.03;;
82640;SDS011;72322;41.918;22.414;2023-12-20T00:10:55;47.72;;;27.50;;
82640;SDS011;72322;41.918;22.414;2023-12-20T00:13:21;51.92;;;31.00;;
82640;SDS011;72322;41.918;22.414;2023-12-20T00:15:47;49.03;;;27.88;;
82640;SDS011;72322;41.918;22.414;2023-12-20T00:18:13;45.42;;;27.98;;
82640;SDS011;72322;41.918;22.414;2023-12-20T00:20:40;49.35;;;30.95;;
82640;SDS011;72322;41.918;22.414;2023-12-20T00:23:06;36.25;;;20.60;;
82640;SDS011;72322;41.918;22.414;2023-12-20T00:25:33;15.23;;;10.02;;
82640;SDS011;72322;41.918;22.414;2023-12-20T00:28:00;14.20;;;8.88;;
82640;SDS011;72322;41.918;22.414;2023-12-20T00:30:27;15.85;;;10.18;;
82640;SDS011;72322;41.918;22.414;2023-12-20T00:32:53;19.80;;;12.75;;
82640;SDS011;72322;41.918;22.414;2023-12-20T00:35:20;20.35;;;11.27;;
82640;SDS011;72322;41.918;22.414;2023-12-20T00:37:46;21.42;;;12.90;;
82640;SDS011;72322;41.918;22.414;2023-12-20T00:40:12;16.67;;;9.65;;
82640;SDS011;72322;41.918;22.414;2023-12-20T00:42:38;16.65;;;8.75;;
82640;SDS011;72322;41.918;22.414;2023-12-20T00:45:04;19.42;;;8.15;;
82640;SDS011;72322;41.918;22.414;2023-12-20T00:47:31;18.15;;;8.15;;
82640;SDS011;72322;41.918;22.414;2023-12-20T00:49:57;10.55;;;5.85;;
82640;SDS011;72322;41.918;22.414;2023-12-20T00:52:24;6.80;;;3.58;;
82640;SDS011;72322;41.918;22.414;2023-12-20T00:54:50;9.65;;;6.97;;
82640;SDS011;72322;41.918;22.414;2023-12-20T00:57:17;14.00;;;9.07;;
82640;SDS011;72322;41.918;22.414;2023-12-20T00:59:43;12.85;;;7.88;;
82640;SDS011;72322;41.918;22.414;2023-12-20T01:02:09;12.13;;;7.13;;
82640;SDS011;72322;41.918;22.414;2023-12-20T01:04:35;14.13;;;8.50;;
82640;SDS011;72322;41.918;22.414;2023-12-20T01:07:01;17.50;;;10.68;;
82640;SDS011;72322;41.918;22.414;2023-12-20T01:09:27;32.90;;;19.30;;
82640;SDS011;72322;41.918;22.414;2023-12-20T01:11:53;39.40;;;22.35;;
82640;SDS011;72322;41.918;22.414;2023-12-20T01:14:19;33.30;;;20.70;;
82640;SDS011;72322;41.918;22.414;2023-12-20T01:16:45;37.95;;;21.08;;
82640;SDS011;72322;41.918;22.414;2023-12-20T01:19:12;21.42;;;13.35;;
82640;SDS011;72322;41.918;22.414;2023-12-20T01:21:39;26.92;;;15.45;;
82640;SDS011;72322;41.918;22.414;2023-12-20T01:24:05;23.20;;;13.57;;
82640;SDS011;72322;41.918;22.414;2023-12-20T01:26:31;21.48;;;13.35;;
82640;SDS011;72322;41.918;22.414;2023-12-20T01:28:57;41.30;;;24.85;;
82640;SDS011;72322;41.918;22.414;2023-12-20T01:31:23;11.65;;;7.50;;
82640;SDS011;72322;41.918;22.414;2023-12-20T01:33:49;11.60;;;6.93;;
82640;SDS011;72322;41.918;22.414;2023-12-20T01:36:15;7.32;;;4.43;;
82640;SDS011;72322;41.918;22.414;2023-12-20T01:38:41;10.88;;;5.68;;
82640;SDS011;72322;41.918;22.414;2023-12-20T01:41:07;7.68;;;4.05;;
82640;SDS011;72322;41.918;22.414;2023-12-20T01:43:33;11.27;;;5.70;;
82640;SDS011;72322;41.918;22.414;2023-12-20T01:45:59;9.52;;;6.40;;
82640;SDS011;72322;41.918;22.414;2023-12-20T01:48:26;6.38;;;4.90;;
82640;SDS011;72322;41.918;22.414;2023-12-20T01:50:53;10.65;;;5.28;;
82640;SDS011;72322;41.918;22.414;2023-12-20T01:53:20;22.63;;;10.10;;
82640;SDS011;72322;41.918;22.414;2023-12-20T01:55:47;9.32;;;4.57;;
82640;SDS011;72322;41.918;22.414;2023-12-20T01:58:14;6.57;;;3.50;;
82640;SDS011;72322;41.918;22.414;2023-12-20T02:00:40;7.57;;;4.13;;
82640;SDS011;72322;41.918;22.414;2023-12-20T02:03:06;8.82;;;6.15;;
82640;SDS011;72322;41.918;22.414;2023-12-20T02:05:33;8.57;;;4.88;;
82640;SDS011;72322;41.918;22.414;2023-12-20T02:07:59;6.70;;;4.40;;
82640;SDS011;72322;41.918;22.414;2023-12-20T02:10:26;9.38;;;5.97;;
82640;SDS011;72322;41.918;22.414;2023-12-20T02:12:52;10.63;;;7.03;;
82640;SDS011;72322;41.918;22.414;2023-12-20T02:15:18;21.77;;;11.05;;
82640;SDS011;72322;41.918;22.414;2023-12-20T02:17:45;24.05;;;14.32;;
82640;SDS011;72322;41.918;22.414;2023-12-20T02:20:12;28.33;;;15.93;;
82640;SDS011;72322;41.918;22.414;2023-12-20T02:22:38;27.05;;;15.60;;
82640;SDS011;72322;41.918;22.414;2023-12-20T02:25:04;16.27;;;9.57;;
82640;SDS011;72322;41.918;22.414;2023-12-20T02:27:30;20.75;;;11.43;;
82640;SDS011;72322;41.918;22.414;2023-12-20T02:29:56;19.88;;;11.70;;
82640;SDS011;72322;41.918;22.414;2023-12-20T02:32:22;22.55;;;11.85;;
82640;SDS011;72322;41.918;22.414;2023-12-20T02:34:53;29.55;;;14.30;;
82640;SDS011;72322;41.918;22.414;2023-12-20T02:37:19;23.73;;;11.95;;
82640;SDS011;72322;41.918;22.414;2023-12-20T02:39:45;23.88;;;14.75;;
82640;SDS011;72322;41.918;22.414;2023-12-20T02:42:11;16.73;;;9.43;;
82640;SDS011;72322;41.918;22.414;2023-12-20T02:44:37;11.20;;;6.43;;
82640;SDS011;72322;41.918;22.414;2023-12-20T02:47:03;13.82;;;10.02;;
82640;SDS011;72322;41.918;22.414;2023-12-20T02:49:29;11.73;;;5.63;;
82640;SDS011;72322;41.918;22.414;2023-12-20T02:51:55;9.40;;;5.57;;
82640;SDS011;72322;41.918;22.414;2023-12-20T02:54:21;17.08;;;9.07;;
82640;SDS011;72322;41.918;22.414;2023-12-20T02:56:48;10.20;;;5.30;;
82640;SDS011;72322;41.918;22.414;2023-12-20T02:59:14;15.75;;;7.35;;
82640;SDS011;72322;41.918;22.414;2023-12-20T03:01:43;9.57;;;5.47;;
82640;SDS011;72322;41.918;22.414;2023-12-20T03:04:10;8.15;;;4.07;;
82640;SDS011;72322;41.918;22.414;2023-12-20T03:06:36;9.50;;;5.32;;
82640;SDS011;72322;41.918;22.414;2023-12-20T03:09:02;15.73;;;9.85;;
82640;SDS011;72322;41.918;22.414;2023-12-20T03:11:29;9.18;;;6.60;;
82640;SDS011;72322;41.918;22.414;2023-12-20T03:13:56;17.85;;;10.10;;
82640;SDS011;72322;41.918;22.414;2023-12-20T03:16:22;32.88;;;18.83;;
82640;SDS011;72322;41.918;22.414;2023-12-20T03:18:48;36.63;;;20.15;;
82640;SDS011;72322;41.918;22.414;2023-12-20T03:21:14;31.33;;;16.75;;
82640;SDS011;72322;41.918;22.414;2023-12-20T03:23:40;27.27;;;15.02;;
82640;SDS011;72322;41.918;22.414;2023-12-20T03:26:07;30.73;;;14.70;;
82640;SDS011;72322;41.918;22.414;2023-12-20T03:28:33;25.23;;;14.23;;
82640;SDS011;72322;41.918;22.414;2023-12-20T03:30:59;27.42;;;13.68;;
82640;SDS011;72322;41.918;22.414;2023-12-20T03:33:27;28.23;;;13.52;;
82640;SDS011;72322;41.918;22.414;2023-12-20T03:35:53;22.75;;;12.13;;
82640;SDS011;72322;41.918;22.414;2023-12-20T03:38:20;23.02;;;13.57;;
82640;SDS011;72322;41.918;22.414;2023-12-20T03:40:46;16.95;;;10.02;;
82640;SDS011;72322;41.918;22.414;2023-12-20T03:43:12;12.30;;;7.43;;
82640;SDS011;72322;41.918;22.414;2023-12-20T03:45:38;11.68;;;7.30;;
82640;SDS011;72322;41.918;22.414;2023-12-20T03:48:04;13.48;;;7.38;;
82640;SDS011;72322;41.918;22.414;2023-12-20T03:50:30;14.30;;;8.18;;
82640;SDS011;72322;41.918;22.414;2023-12-20T03:52:56;12.88;;;7.78;;
82640;SDS011;72322;41.918;22.414;2023-12-20T03:55:22;18.50;;;10.68;;
82640;SDS011;72322;41.918;22.414;2023-12-20T03:57:49;13.60;;;8.73;;
82640;SDS011;72322;41.918;22.414;2023-12-20T04:00:15;15.63;;;9.88;;
82640;SDS011;72322;41.918;22.414;2023-12-20T04:02:41;21.73;;;12.43;;
82640;SDS011;72322;41.918;22.414;2023-12-20T04:05:08;13.70;;;9.45;;
82640;SDS011;72322;41.918;22.414;2023-12-20T04:07:34;12.25;;;8.23;;
82640;SDS011;72322;41.918;22.414;2023-12-20T04:10:01;11.80;;;6.57;;
82640;SDS011;72322;41.918;22.414;2023-12-20T04:12:28;10.77;;;7.97;;
82640;SDS011;72322;41.918;22.414;2023-12-20T04:14:55;9.20;;;6.88;;
82640;SDS011;72322;41.918;22.414;2023-12-20T04:17:21;18.02;;;10.88;;
82640;SDS011;72322;41.918;22.414;2023-12-20T04:19:50;9.90;;;5.75;;
82640;SDS011;72322;41.918;22.414;2023-12-20T04:22:19;12.07;;;6.07;;
82640;SDS011;72322;41.918;22.414;2023-12-20T04:24:45;7.78;;;4.32;;
82640;SDS011;72322;41.918;22.414;2023-12-20T04:27:11;5.30;;;3.72;;
82640;SDS011;72322;41.918;22.414;2023-12-20T04:29:37;5.35;;;4.20;;
82640;SDS011;72322;41.918;22.414;2023-12-20T04:32:04;7.18;;;4.25;;
82640;SDS011;72322;41.918;22.414;2023-12-20T04:34:30;7.55;;;4.85;;
82640;SDS011;72322;41.918;22.414;2023-12-20T04:36:56;5.22;;;3.30;;
82640;SDS011;72322;41.918;22.414;2023-12-20T04:39:22;8.60;;;5.10;;
82640;SDS011;72322;41.918;22.414;2023-12-20T04:41:48;6.10;;;3.90;;
82640;SDS011;72322;41.918;22.414;2023-12-20T04:44:15;6.07;;;4.05;;
82640;SDS011;72322;41.918;22.414;2023-12-20T04:46:41;10.43;;;5.53;;
82640;SDS011;72322;41.918;22.414;2023-12-20T04:49:07;13.75;;;7.68;;
82640;SDS011;72322;41.918;22.414;2023-12-20T04:51:33;8.32;;;4.93;;
82640;SDS011;72322;41.918;22.414;2023-12-20T04:54:00;10.55;;;6.00;;
82640;SDS011;72322;41.918;22.414;2023-12-20T04:56:26;11.98;;;7.47;;
82640;SDS011;72322;41.918;22.414;2023-12-20T04:58:52;8.52;;;5.75;;
82640;SDS011;72322;41.918;22.414;2023-12-20T05:01:18;15.35;;;9.00;;
82640;SDS011;72322;41.918;22.414;2023-12-20T05:03:44;19.50;;;10.07;;
82640;SDS011;72322;41.918;22.414;2023-12-20T05:06:10;32.33;;;13.23;;
82640;SDS011;72322;41.918;22.414;2023-12-20T05:08:36;17.73;;;8.65;;
82640;SDS011;72322;41.918;22.414;2023-12-20T05:11:02;14.45;;;6.43;;
82640;SDS011;72322;41.918;22.414;2023-12-20T05:13:29;9.98;;;3.92;;
82640;SDS011;72322;41.918;22.414;2023-12-20T05:15:55;8.27;;;4.47;;
82640;SDS011;72322;41.918;22.414;2023-12-20T05:18:21;13.95;;;8.07;;
82640;SDS011;72322;41.918;22.414;2023-12-20T05:20:48;15.10;;;8.77;;
82640;SDS011;72322;41.918;22.414;2023-12-20T05:23:14;21.83;;;12.82;;
82640;SDS011;72322;41.918;22.414;2023-12-20T05:25:41;21.80;;;11.18;;
82640;SDS011;72322;41.918;22.414;2023-12-20T05:28:07;32.78;;;18.00;;
82640;SDS011;72322;41.918;22.414;2023-12-20T05:30:33;34.20;;;19.23;;
82640;SDS011;72322;41.918;22.414;2023-12-20T05:32:59;27.33;;;16.70;;
82640;SDS011;72322;41.918;22.414;2023-12-20T05:35:25;26.92;;;17.33;;
82640;SDS011;72322;41.918;22.414;2023-12-20T05:50:31;54.03;;;26.90;;
82640;SDS011;72322;41.918;22.414;2023-12-20T05:52:57;53.88;;;26.63;;
82640;SDS011;72322;41.918;22.414;2023-12-20T05:55:23;60.45;;;31.15;;
82640;SDS011;72322;41.918;22.414;2023-12-20T05:57:50;52.85;;;28.52;;
82640;SDS011;72322;41.918;22.414;2023-12-20T06:00:16;44.72;;;24.98;;
82640;SDS011;72322;41.918;22.414;2023-12-20T06:02:42;40.80;;;20.88;;
82640;SDS011;72322;41.918;22.414;2023-12-20T06:05:09;39.42;;;21.58;;
82640;SDS011;72322;41.918;22.414;2023-12-20T06:07:35;45.90;;;24.67;;
82640;SDS011;72322;41.918;22.414;2023-12-20T06:10:01;47.42;;;26.27;;
82640;SDS011;72322;41.918;22.414;2023-12-20T06:12:27;54.25;;;28.05;;
82640;SDS011;72322;41.918;22.414;2023-12-20T06:14:54;61.58;;;31.00;;
82640;SDS011;72322;41.918;22.414;2023-12-20T06:17:20;59.10;;;28.45;;
82640;SDS011;72322;41.918;22.414;2023-12-20T06:19:46;53.95;;;28.63;;
82640;SDS011;72322;41.918;22.414;2023-12-20T06:22:13;51.33;;;27.95;;
82640;SDS011;72322;41.918;22.414;2023-12-20T06:24:39;53.90;;;28.63;;
82640;SDS011;72322;41.918;22.414;2023-12-20T06:27:05;73.35;;;35.47;;
82640;SDS011;72322;41.918;22.414;2023-12-20T06:29:31;76.72;;;38.97;;
82640;SDS011;72322;41.918;22.414;2023-12-20T06:31:57;86.35;;;44.58;;
82640;SDS011;72322;41.918;22.414;2023-12-20T06:34:23;82.03;;;44.10;;
82640;SDS011;72322;41.918;22.414;2023-12-20T06:36:50;64.78;;;34.60;;
82640;SDS011;72322;41.918;22.414;2023-12-20T06:39:16;64.60;;;34.67;;
82640;SDS011;72322;41.918;22.414;2023-12-20T06:41:42;90.97;;;44.47;;
82640;SDS011;72322;41.918;22.414;2023-12-20T06:44:08;85.22;;;43.22;;
82640;SDS011;72322;41.918;22.414;2023-12-20T06:46:34;132.30;;;65.15;;
82640;SDS011;72322;41.918;22.414;2023-12-20T06:49:01;123.57;;;59.38;;
82640;SDS011;72322;41.918;22.414;2023-12-20T06:51:27;115.47;;;60.55;;
82640;SDS011;72322;41.918;22.414;2023-12-20T06:53:53;109.40;;;54.78;;
82640;SDS011;72322;41.918;22.414;2023-12-20T06:56:19;96.13;;;50.58;;
82640;SDS011;72322;41.918;22.414;2023-12-20T06:58:46;70.75;;;37.75;;
82640;SDS011;72322;41.918;22.414;2023-12-20T07:01:13;96.40;;;52.55;;
82640;SDS011;72322;41.918;22.414;2023-12-20T07:03:39;89.43;;;47.90;;
82640;SDS011;72322;41.918;22.414;2023-12-20T07:06:05;49.60;;;27.50;;
82640;SDS011;72322;41.918;22.414;2023-12-20T07:08:32;44.63;;;26.35;;
82640;SDS011;72322;41.918;22.414;2023-12-20T07:10:58;19.52;;;10.48;;
82640;SDS011;72322;41.918;22.414;2023-12-20T07:13:24;75.38;;;48.03;;
82640;SDS011;72322;41.918;22.414;2023-12-20T07:15:50;45.95;;;27.52;;
82640;SDS011;72322;41.918;22.414;2023-12-20T07:18:16;43.85;;;27.55;;
82640;SDS011;72322;41.918;22.414;2023-12-20T07:20:42;41.13;;;24.25;;
82640;SDS011;72322;41.918;22.414;2023-12-20T07:23:08;16.73;;;10.60;;
82640;SDS011;72322;41.918;22.414;2023-12-20T07:25:35;62.85;;;29.38;;
82640;SDS011;72322;41.918;22.414;2023-12-20T07:28:01;49.65;;;28.13;;
82640;SDS011;72322;41.918;22.414;2023-12-20T07:30:27;53.85;;;29.05;;
82640;SDS011;72322;41.918;22.414;2023-12-20T07:32:53;49.67;;;26.17;;
82640;SDS011;72322;41.918;22.414;2023-12-20T07:35:19;40.92;;;24.17;;
82640;SDS011;72322;41.918;22.414;2023-12-20T07:37:45;39.88;;;24.50;;
82640;SDS011;72322;41.918;22.414;2023-12-20T07:40:11;42.72;;;25.00;;
82640;SDS011;72322;41.918;22.414;2023-12-20T07:42:37;46.05;;;25.48;;
82640;SDS011;72322;41.918;22.414;2023-12-20T07:45:03;39.55;;;24.85;;
82640;SDS011;72322;41.918;22.414;2023-12-20T07:47:29;39.58;;;23.15;;
82640;SDS011;72322;41.918;22.414;2023-12-20T07:49:56;44.53;;;25.98;;
82640;SDS011;72322;41.918;22.414;2023-12-20T07:52:22;43.13;;;23.95;;
82640;SDS011;72322;41.918;22.414;2023-12-20T07:54:48;34.60;;;19.70;;
82640;SDS011;72322;41.918;22.414;2023-12-20T07:57:14;31.75;;;19.33;;
82640;SDS011;72322;41.918;22.414;2023-12-20T07:59:41;27.45;;;16.92;;
82640;SDS011;72322;41.918;22.414;2023-12-20T08:02:07;25.95;;;16.08;;
82640;SDS011;72322;41.918;22.414;2023-12-20T08:04:33;30.50;;;18.20;;
82640;SDS011;72322;41.918;22.414;2023-12-20T08:06:59;36.40;;;19.92;;
82640;SDS011;72322;41.918;22.414;2023-12-20T08:09:26;45.30;;;26.60;;
82640;SDS011;72322;41.918;22.414;2023-12-20T08:11:52;35.70;;;21.02;;
82640;SDS011;72322;41.918;22.414;2023-12-20T08:14:18;33.33;;;19.90;;
82640;SDS011;72322;41.918;22.414;2023-12-20T08:16:44;29.33;;;17.38;;
82640;SDS011;72322;41.918;22.414;2023-12-20T08:19:10;31.60;;;20.85;;
82640;SDS011;72322;41.918;22.414;2023-12-20T08:21:36;33.40;;;21.02;;
82640;SDS011;72322;41.918;22.414;2023-12-20T08:24:02;43.03;;;25.17;;
82640;SDS011;72322;41.918;22.414;2023-12-20T08:26:28;50.05;;;28.08;;
82640;SDS011;72322;41.918;22.414;2023-12-20T08:28:55;48.33;;;28.05;;
82640;SDS011;72322;41.918;22.414;2023-12-20T08:31:21;57.55;;;29.60;;
82640;SDS011;72322;41.918;22.414;2023-12-20T08:33:47;35.03;;;22.38;;
82640;SDS011;72322;41.918;22.414;2023-12-20T08:36:14;34.33;;;20.30;;
82640;SDS011;72322;41.918;22.414;2023-12-20T08:38:40;31.40;;;18.85;;
82640;SDS011;72322;41.918;22.414;2023-12-20T08:41:06;37.17;;;19.48;;
82640;SDS011;72322;41.918;22.414;2023-12-20T08:43:35;37.78;;;21.77;;
82640;SDS011;72322;41.918;22.414;2023-12-20T08:46:02;36.15;;;20.77;;
82640;SDS011;72322;41.918;22.414;2023-12-20T08:48:28;27.58;;;18.60;;
82640;SDS011;72322;41.918;22.414;2023-12-20T08:50:54;31.23;;;19.33;;
82640;SDS011;72322;41.918;22.414;2023-12-20T08:53:20;33.22;;;20.83;;
82640;SDS011;72322;41.918;22.414;2023-12-20T08:55:46;17.92;;;12.73;;
82640;SDS011;72322;41.918;22.414;2023-12-20T08:58:13;19.42;;;13.55;;
82640;SDS011;72322;41.918;22.414;2023-12-20T09:00:40;19.80;;;12.50;;
82640;SDS011;72322;41.918;22.414;2023-12-20T09:03:06;18.20;;;13.80;;
82640;SDS011;72322;41.918;22.414;2023-12-20T09:05:32;24.05;;;14.90;;
82640;SDS011;72322;41.918;22.414;2023-12-20T09:07:58;20.30;;;11.95;;
82640;SDS011;72322;41.918;22.414;2023-12-20T09:10:24;17.92;;;10.68;;
82640;SDS011;72322;41.918;22.414;2023-12-20T09:12:53;15.68;;;9.90;;
82640;SDS011;72322;41.918;22.414;2023-12-20T09:15:23;14.70;;;10.02;;
82640;SDS011;72322;41.918;22.414;2023-12-20T09:17:49;17.20;;;9.88;;
82640;SDS011;72322;41.918;22.414;2023-12-20T09:20:15;12.95;;;8.48;;
82640;SDS011;72322;41.918;22.414;2023-12-20T09:22:41;12.55;;;7.85;;
82640;SDS011;72322;41.918;22.414;2023-12-20T09:25:09;11.40;;;7.00;;
82640;SDS011;72322;41.918;22.414;2023-12-20T09:27:36;13.00;;;6.97;;
82640;SDS011;72322;41.918;22.414;2023-12-20T09:30:02;15.30;;;7.95;;
82640;SDS011;72322;41.918;22.414;2023-12-20T09:32:30;12.77;;;7.47;;
82640;SDS011;72322;41.918;22.414;2023-12-20T09:34:56;12.20;;;7.55;;
82640;SDS011;72322;41.918;22.414;2023-12-20T09:37:22;13.52;;;7.85;;
82640;SDS011;72322;41.918;22.414;2023-12-20T09:39:49;11.70;;;7.40;;
82640;SDS011;72322;41.918;22.414;2023-12-20T09:42:16;12.10;;;8.05;;
82640;SDS011;72322;41.918;22.414;2023-12-20T09:44:45;13.65;;;7.90;;
82640;SDS011;72322;41.918;22.414;2023-12-20T09:47:11;14.70;;;8.77;;
82640;SDS011;72322;41.918;22.414;2023-12-20T09:49:37;13.02;;;8.35;;
82640;SDS011;72322;41.918;22.414;2023-12-20T09:52:03;13.75;;;9.38;;
82640;SDS011;72322;41.918;22.414;2023-12-20T09:54:30;16.60;;;10.48;;
82640;SDS011;72322;41.918;22.414;2023-12-20T09:56:56;16.05;;;9.55;;
82640;SDS011;72322;41.918;22.414;2023-12-20T09:59:23;15.45;;;8.75;;
82640;SDS011;72322;41.918;22.414;2023-12-20T10:01:49;20.88;;;11.07;;
82640;SDS011;72322;41.918;22.414;2023-12-20T10:04:16;18.45;;;10.07;;
82640;SDS011;72322;41.918;22.414;2023-12-20T10:06:42;14.70;;;10.90;;
82640;SDS011;72322;41.918;22.414;2023-12-20T10:09:09;14.55;;;10.82;;
82640;SDS011;72322;41.918;22.414;2023-12-20T10:11:36;15.32;;;9.88;;
82640;SDS011;72322;41.918;22.414;2023-12-20T10:14:05;15.00;;;10.13;;
82640;SDS011;72322;41.918;22.414;2023-12-20T10:16:32;12.48;;;8.65;;
82640;SDS011;72322;41.918;22.414;2023-12-20T10:18:59;13.32;;;9.20;;
82640;SDS011;72322;41.918;22.414;2023-12-20T10:21:26;13.68;;;8.80;;
82640;SDS011;72322;41.918;22.414;2023-12-20T10:23:55;15.65;;;9.02;;
82640;SDS011;72322;41.918;22.414;2023-12-20T10:26:22;12.27;;;8.27;;
82640;SDS011;72322;41.918;22.414;2023-12-20T10:28:52;13.30;;;9.10;;
82640;SDS011;72322;41.918;22.414;2023-12-20T10:31:34;18.83;;;10.15;;
82640;SDS011;72322;41.918;22.414;2023-12-20T10:34:03;16.95;;;9.32;;
82640;SDS011;72322;41.918;22.414;2023-12-20T10:36:30;15.88;;;9.93;;
82640;SDS011;72322;41.918;22.414;2023-12-20T10:38:57;10.90;;;7.47;;
82640;SDS011;72322;41.918;22.414;2023-12-20T10:41:27;10.32;;;7.00;;
82640;SDS011;72322;41.918;22.414;2023-12-20T10:44:03;12.85;;;8.13;;
82640;SDS011;72322;41.918;22.414;2023-12-20T10:46:33;13.57;;;9.57;;
82640;SDS011;72322;41.918;22.414;2023-12-20T10:48:59;12.35;;;8.07;;
82640;SDS011;72322;41.918;22.414;2023-12-20T10:51:27;11.27;;;7.55;;
82640;SDS011;72322;41.918;22.414;2023-12-20T10:53:57;10.35;;;6.95;;
82640;SDS011;72322;41.918;22.414;2023-12-20T10:56:23;16.58;;;8.75;;
82640;SDS011;72322;41.918;22.414;2023-12-20T10:58:50;14.35;;;7.07;;
82640;SDS011;72322;41.918;22.414;2023-12-20T11:01:17;11.50;;;7.15;;
82640;SDS011;72322;41.918;22.414;2023-12-20T11:12:38;10.20;;;5.30;;
82640;SDS011;72322;41.918;22.414;2023-12-20T11:17:11;15.23;;;6.88;;
82640;SDS011;72322;41.918;22.414;2023-12-20T11:22:26;11.45;;;6.53;;
82640;SDS011;72322;41.918;22.414;2023-12-20T11:25:02;10.60;;;6.90;;
82640;SDS011;72322;41.918;22.414;2023-12-20T11:27:29;10.52;;;6.00;;
82640;SDS011;72322;41.918;22.414;2023-12-20T11:29:56;10.68;;;5.18;;
82640;SDS011;72322;41.918;22.414;2023-12-20T11:34:57;8.68;;;6.18;;
82640;SDS011;72322;41.918;22.414;2023-12-20T11:37:30;9.93;;;6.20;;
82640;SDS011;72322;41.918;22.414;2023-12-20T11:40:08;8.57;;;6.00;;
82640;SDS011;72322;41.918;22.414;2023-12-20T11:42:44;9.60;;;6.55;;
82640;SDS011;72322;41.918;22.414;2023-12-20T11:45:14;10.85;;;6.03;;
82640;SDS011;72322;41.918;22.414;2023-12-20T11:47:44;8.85;;;5.60;;
82640;SDS011;72322;41.918;22.414;2023-12-20T11:50:11;8.20;;;5.45;;
82640;SDS011;72322;41.918;22.414;2023-12-20T11:52:37;7.25;;;5.50;;
82640;SDS011;72322;41.918;22.414;2023-12-20T11:55:03;8.20;;;5.00;;
82640;SDS011;72322;41.918;22.414;2023-12-20T11:57:30;8.18;;;5.28;;
82640;SDS011;72322;41.918;22.414;2023-12-20T11:59:56;11.23;;;7.22;;
82640;SDS011;72322;41.918;22.414;2023-12-20T12:02:22;12.93;;;7.03;;
82640;SDS011;72322;41.918;22.414;2023-12-20T12:04:49;8.85;;;5.93;;
82640;SDS011;72322;41.918;22.414;2023-12-20T12:07:18;15.10;;;6.53;;
82640;SDS011;72322;41.918;22.414;2023-12-20T12:09:44;8.93;;;4.97;;
82640;SDS011;72322;41.918;22.414;2023-12-20T12:12:13;9.02;;;6.15;;
82640;SDS011;72322;41.918;22.414;2023-12-20T12:14:39;8.93;;;6.20;;
82640;SDS011;72322;41.918;22.414;2023-12-20T12:17:12;9.40;;;6.15;;
82640;SDS011;72322;41.918;22.414;2023-12-20T12:19:38;9.70;;;5.97;;
82640;SDS011;72322;41.918;22.414;2023-12-20T12:24:37;9.13;;;5.72;;
82640;SDS011;72322;41.918;22.414;2023-12-20T12:27:05;12.05;;;8.02;;
82640;SDS011;72322;41.918;22.414;2023-12-20T12:29:32;10.15;;;7.78;;
82640;SDS011;72322;41.918;22.414;2023-12-20T12:31:59;7.28;;;5.47;;
82640;SDS011;72322;41.918;22.414;2023-12-20T12:34:27;9.90;;;5.35;;
82640;SDS011;72322;41.918;22.414;2023-12-20T12:36:53;7.20;;;4.75;;
82640;SDS011;72322;41.918;22.414;2023-12-20T12:39:19;9.68;;;6.28;;
82640;SDS011;72322;41.918;22.414;2023-12-20T12:41:45;16.25;;;10.60;;
82640;SDS011;72322;41.918;22.414;2023-12-20T12:44:11;11.77;;;7.78;;
82640;SDS011;72322;41.918;22.414;2023-12-20T12:46:38;12.77;;;8.02;;
82640;SDS011;72322;41.918;22.414;2023-12-20T12:49:04;14.25;;;8.60;;
82640;SDS011;72322;41.918;22.414;2023-12-20T12:51:30;8.98;;;5.95;;
82640;SDS011;72322;41.918;22.414;2023-12-20T12:53:56;8.55;;;5.35;;
82640;SDS011;72322;41.918;22.414;2023-12-20T12:56:22;9.98;;;6.20;;
82640;SDS011;72322;41.918;22.414;2023-12-20T12:58:48;8.50;;;5.50;;
82640;SDS011;72322;41.918;22.414;2023-12-20T13:01:15;9.18;;;6.20;;
82640;SDS011;72322;41.918;22.414;2023-12-20T13:03:41;15.38;;;8.40;;
82640;SDS011;72322;41.918;22.414;2023-12-20T13:06:07;11.05;;;7.35;;
82640;SDS011;72322;41.918;22.414;2023-12-20T13:08:34;17.63;;;10.48;;
82640;SDS011;72322;41.918;22.414;2023-12-20T13:11:00;9.13;;;6.05;;
82640;SDS011;72322;41.918;22.414;2023-12-20T13:13:29;9.63;;;6.32;;
82640;SDS011;72322;41.918;22.414;2023-12-20T13:15:55;13.73;;;9.55;;
82640;SDS011;72322;41.918;22.414;2023-12-20T13:18:22;10.52;;;7.50;;
82640;SDS011;72322;41.918;22.414;2023-12-20T13:20:48;10.80;;;7.72;;
82640;SDS011;72322;41.918;22.414;2023-12-20T13:23:14;10.18;;;7.05;;
82640;SDS011;72322;41.918;22.414;2023-12-20T13:25:43;11.15;;;6.85;;
82640;SDS011;72322;41.918;22.414;2023-12-20T13:28:12;12.98;;;7.35;;
82640;SDS011;72322;41.918;22.414;2023-12-20T13:30:39;12.57;;;7.82;;
82640;SDS011;72322;41.918;22.414;2023-12-20T13:33:05;17.02;;;9.60;;
82640;SDS011;72322;41.918;22.414;2023-12-20T13:35:31;15.45;;;9.82;;
82640;SDS011;72322;41.918;22.414;2023-12-20T13:37:58;12.32;;;8.35;;
82640;SDS011;72322;41.918;22.414;2023-12-20T13:40:24;17.02;;;9.23;;
82640;SDS011;72322;41.918;22.414;2023-12-20T13:42:50;16.00;;;10.43;;
82640;SDS011;72322;41.918;22.414;2023-12-20T13:45:16;12.90;;;7.95;;
82640;SDS011;72322;41.918;22.414;2023-12-20T13:47:42;14.70;;;7.88;;
82640;SDS011;72322;41.918;22.414;2023-12-20T13:50:08;19.08;;;10.63;;
82640;SDS011;72322;41.918;22.414;2023-12-20T13:52:34;11.63;;;7.40;;
82640;SDS011;72322;41.918;22.414;2023-12-20T13:55:01;12.25;;;9.38;;
82640;SDS011;72322;41.918;22.414;2023-12-20T13:57:27;12.43;;;8.60;;
82640;SDS011;72322;41.918;22.414;2023-12-20T13:59:54;11.07;;;7.93;;
82640;SDS011;72322;41.918;22.414;2023-12-20T14:02:22;12.50;;;7.80;;
82640;SDS011;72322;41.918;22.414;2023-12-20T14:04:49;11.82;;;6.78;;
82640;SDS011;72322;41.918;22.414;2023-12-20T14:07:15;9.23;;;6.18;;
82640;SDS011;72322;41.918;22.414;2023-12-20T14:09:41;11.38;;;7.03;;
82640;SDS011;72322;41.918;22.414;2023-12-20T14:12:10;10.65;;;7.43;;
82640;SDS011;72322;41.918;22.414;2023-12-20T14:14:36;10.65;;;6.47;;
82640;SDS011;72322;41.918;22.414;2023-12-20T14:17:02;11.07;;;6.93;;
82640;SDS011;72322;41.918;22.414;2023-12-20T14:19:32;10.98;;;7.03;;
82640;SDS011;72322;41.918;22.414;2023-12-20T14:21:58;17.15;;;10.95;;
82640;SDS011;72322;41.918;22.414;2023-12-20T14:24:29;14.27;;;9.85;;
82640;SDS011;72322;41.918;22.414;2023-12-20T14:26:55;16.13;;;10.32;;
82640;SDS011;72322;41.918;22.414;2023-12-20T14:29:21;14.30;;;9.63;;
82640;SDS011;72322;41.918;22.414;2023-12-20T14:31:47;22.92;;;14.73;;
82640;SDS011;72322;41.918;22.414;2023-12-20T14:34:14;18.65;;;12.60;;
82640;SDS011;72322;41.918;22.414;2023-12-20T14:36:40;21.33;;;12.18;;
82640;SDS011;72322;41.918;22.414;2023-12-20T14:39:06;19.48;;;12.07;;
82640;SDS011;72322;41.918;22.414;2023-12-20T14:41:33;15.93;;;10.30;;
82640;SDS011;72322;41.918;22.414;2023-12-20T14:43:59;20.38;;;12.82;;
82640;SDS011;72322;41.918;22.414;2023-12-20T14:46:26;31.60;;;18.60;;